Topsham, United Kingdom
Current Conditions -  °F | °C
As of 8:20 AM on Friday 19 Dec 2014 (Local Time) from EGTE Reporting Station
Scattered Clouds Scattered Clouds  
Wind Chill: 45°   Ceiling: Unl
Heat Index: 48°   Visibility: 6mi
Dew Point: 45°   Wind: 8mph
Humidity: 87%   Direction: 300°WNW
Pressure: 29.97"   Gusts: NA
Location:  50.69°N, 3.47°W
Report Text: EGTE 190820Z 30007KT 260V320 9999 FEW015 SCT045 09/07 Q1015
Loading
Personal Weather Stations






























Interactive Weather Map New forecast layout! Learn more

10-Day Weather Forecast

Advertisements
Track Severe Weather on mobile